createdAt,value
2019-02-24T00:02:08.109Z,7.70
2019-02-24T00:04:37.210Z,7.50
2019-02-24T00:07:06.303Z,7.67
2019-02-24T00:09:35.372Z,7.10
2019-02-24T00:12:04.515Z,6.10
2019-02-24T00:14:33.671Z,6.67
2019-02-24T00:17:02.941Z,6.40
2019-02-24T00:19:32.019Z,6.00
2019-02-24T00:22:01.176Z,5.83
2019-02-24T00:24:30.283Z,5.80
2019-02-24T00:26:59.435Z,6.43
2019-02-24T00:29:28.631Z,5.50
2019-02-24T00:31:58.577Z,5.75
2019-02-24T00:34:27.673Z,5.70
2019-02-24T00:36:56.761Z,5.60
2019-02-24T00:39:25.849Z,5.33
2019-02-24T00:41:54.932Z,5.23
2019-02-24T00:44:24.051Z,5.47
2019-02-24T00:46:53.145Z,5.47
2019-02-24T00:49:22.247Z,5.57
2019-02-24T00:51:51.341Z,5.47
2019-02-24T00:54:20.503Z,5.13
2019-02-24T00:56:49.609Z,5.20
2019-02-24T00:59:18.704Z,5.55
2019-02-24T01:01:47.784Z,5.07
2019-02-24T01:04:16.869Z,4.83
2019-02-24T01:06:45.889Z,5.30
2019-02-24T01:09:14.956Z,5.43
2019-02-24T01:11:44.035Z,5.13
2019-02-24T01:14:13.143Z,4.63
2019-02-24T01:16:42.353Z,5.03
2019-02-24T01:19:11.445Z,5.13
2019-02-24T01:21:40.513Z,5.30
2019-02-24T01:24:09.599Z,4.75
2019-02-24T01:26:38.675Z,4.53
2019-02-24T01:29:07.767Z,5.22
2019-02-24T01:31:36.837Z,5.35
2019-02-24T01:34:05.943Z,5.20
2019-02-24T01:36:35.010Z,5.17
2019-02-24T01:39:04.991Z,4.93
2019-02-24T01:41:34.079Z,4.83
2019-02-24T01:44:03.163Z,4.92
2019-02-24T01:46:32.247Z,4.87
2019-02-24T01:49:01.345Z,5.10
2019-02-24T01:51:30.433Z,5.05
2019-02-24T01:53:59.497Z,4.83
2019-02-24T01:56:28.963Z,4.80
2019-02-24T01:58:58.053Z,4.80
2019-02-24T02:01:27.217Z,5.28
2019-02-24T02:03:56.419Z,5.83
2019-02-24T02:06:25.497Z,5.30
2019-02-24T02:08:54.579Z,4.93
2019-02-24T02:11:23.659Z,5.17
2019-02-24T02:13:52.751Z,5.17
2019-02-24T02:16:21.826Z,5.33
2019-02-24T02:18:50.948Z,5.30
2019-02-24T02:21:20.097Z,4.97
2019-02-24T02:23:49.183Z,4.95
2019-02-24T02:26:18.350Z,4.97
2019-02-24T02:28:47.545Z,5.30
2019-02-24T02:31:16.634Z,4.65
2019-02-24T02:33:45.788Z,5.03
2019-02-24T02:36:14.884Z,4.80
2019-02-24T02:38:43.980Z,5.12
2019-02-24T02:41:13.065Z,5.00
2019-02-24T02:43:42.148Z,4.78
2019-02-24T02:46:11.327Z,4.87
2019-02-24T02:48:40.433Z,4.92
2019-02-24T02:51:09.945Z,4.72
2019-02-24T02:53:39.033Z,4.50
2019-02-24T02:56:08.112Z,4.37
2019-02-24T02:58:37.187Z,4.92
2019-02-24T03:01:06.272Z,3.83
2019-02-24T03:03:35.389Z,4.27
2019-02-24T03:06:13.422Z,3.92
2019-02-24T03:08:46.849Z,3.87
2019-02-24T03:11:16.211Z,3.93
2019-02-24T03:13:45.356Z,3.47
2019-02-24T03:16:16.079Z,4.40
2019-02-24T03:18:45.188Z,3.97
2019-02-24T03:21:14.285Z,3.90
2019-02-24T03:23:43.384Z,3.72
2019-02-24T03:26:12.535Z,3.75
2019-02-24T03:28:41.635Z,4.10
2019-02-24T03:31:10.647Z,4.10
2019-02-24T03:33:39.744Z,4.20
2019-02-24T03:36:08.829Z,4.17
2019-02-24T03:38:37.910Z,4.10
2019-02-24T03:41:07.020Z,3.85
2019-02-24T03:43:36.108Z,4.72
2019-02-24T03:46:05.226Z,4.10
2019-02-24T03:48:34.300Z,4.53
2019-02-24T03:51:03.378Z,4.28
2019-02-24T03:53:32.551Z,4.40
2019-02-24T03:56:01.626Z,4.10
2019-02-24T03:58:30.698Z,3.98
2019-02-24T04:00:59.774Z,3.80
2019-02-24T04:03:28.866Z,4.47
2019-02-24T04:05:57.983Z,4.12
2019-02-24T04:08:27.115Z,4.50
2019-02-24T04:10:56.186Z,4.28
2019-02-24T04:13:25.296Z,4.05
2019-02-24T04:15:54.386Z,4.30
2019-02-24T04:18:23.441Z,4.72
2019-02-24T04:20:52.518Z,4.30
2019-02-24T04:23:21.632Z,4.58
2019-02-24T04:25:50.760Z,5.00
2019-02-24T04:28:19.839Z,5.10
2019-02-24T04:30:48.931Z,4.40
2019-02-24T04:33:17.991Z,4.70
2019-02-24T04:35:47.095Z,4.70
2019-02-24T04:38:16.164Z,4.60
2019-02-24T04:40:45.187Z,4.25
2019-02-24T04:43:14.278Z,4.67
2019-02-24T04:45:43.404Z,4.60
2019-02-24T04:48:12.478Z,4.90
2019-02-24T04:50:41.586Z,4.55
2019-02-24T04:53:10.734Z,4.62
2019-02-24T04:55:39.803Z,4.87
2019-02-24T04:58:08.902Z,4.90
2019-02-24T05:00:37.979Z,5.03
2019-02-24T05:03:07.071Z,5.17
2019-02-24T05:05:36.167Z,5.45
2019-02-24T05:08:05.281Z,5.25
2019-02-24T05:10:34.344Z,5.00
2019-02-24T05:13:03.430Z,5.25
2019-02-24T05:15:32.520Z,5.53
2019-02-24T05:18:01.622Z,5.10
2019-02-24T05:20:30.736Z,5.60
2019-02-24T05:22:59.820Z,5.33
2019-02-24T05:25:28.912Z,5.78
2019-02-24T05:27:57.992Z,5.50
2019-02-24T05:30:27.099Z,6.47
2019-02-24T05:32:56.184Z,5.85
2019-02-24T05:35:25.319Z,5.92
2019-02-24T05:37:54.396Z,6.12
2019-02-24T05:40:23.546Z,6.78
2019-02-24T05:42:52.644Z,6.58
2019-02-24T05:45:21.730Z,5.83
2019-02-24T05:47:50.833Z,6.15
2019-02-24T05:50:19.956Z,6.37
2019-02-24T05:52:49.109Z,5.78
2019-02-24T05:55:18.192Z,6.75
2019-02-24T05:57:47.285Z,6.55
2019-02-24T06:00:16.346Z,6.10
2019-02-24T06:02:45.346Z,6.40
2019-02-24T06:05:14.553Z,6.05
2019-02-24T06:07:43.667Z,5.53
2019-02-24T06:10:12.752Z,6.50
2019-02-24T06:12:41.938Z,5.75
2019-02-24T06:15:11.039Z,6.00
2019-02-24T06:17:40.268Z,6.35
2019-02-24T06:20:09.363Z,5.62
2019-02-24T06:22:38.410Z,6.78
2019-02-24T06:25:07.655Z,6.20
2019-02-24T06:27:36.807Z,6.60
2019-02-24T06:30:06.050Z,6.72
2019-02-24T06:32:35.127Z,6.87
2019-02-24T06:35:04.535Z,6.33
2019-02-24T06:37:33.671Z,6.92
2019-02-24T06:40:02.789Z,7.22
2019-02-24T06:42:31.863Z,6.60
2019-02-24T06:45:01.014Z,6.70
2019-02-24T06:47:30.113Z,7.37
2019-02-24T06:49:59.207Z,7.55
2019-02-24T06:52:28.300Z,7.00
2019-02-24T06:54:57.487Z,7.33
2019-02-24T06:57:26.574Z,7.40
2019-02-24T06:59:55.706Z,7.30
2019-02-24T07:02:24.855Z,7.35
2019-02-24T07:04:53.889Z,7.22
2019-02-24T07:07:22.966Z,7.40
2019-02-24T07:09:52.196Z,7.83
2019-02-24T07:12:21.292Z,7.22
2019-02-24T07:14:50.420Z,7.47
2019-02-24T07:17:19.554Z,7.62
2019-02-24T07:19:48.651Z,7.53
2019-02-24T07:22:17.727Z,7.40
2019-02-24T07:24:46.813Z,7.40
2019-02-24T07:27:15.933Z,8.15
2019-02-24T07:29:44.956Z,7.20
2019-02-24T07:32:14.086Z,7.72
2019-02-24T07:34:43.167Z,7.60
2019-02-24T07:37:13.252Z,7.83
2019-02-24T07:39:42.639Z,7.40
2019-02-24T07:42:11.763Z,8.05
2019-02-24T07:44:40.875Z,7.22
2019-02-24T07:47:09.955Z,7.60
2019-02-24T07:49:38.946Z,7.28
2019-02-24T07:52:08.116Z,7.37
2019-02-24T07:54:37.261Z,7.40
2019-02-24T07:57:06.327Z,6.97
2019-02-24T07:59:35.511Z,6.95
2019-02-24T08:02:04.622Z,7.40
2019-02-24T08:04:33.733Z,6.80
2019-02-24T08:07:02.964Z,7.25
2019-02-24T08:09:32.149Z,6.65
2019-02-24T08:12:01.306Z,7.05
2019-02-24T08:14:30.440Z,7.15
2019-02-24T08:16:59.543Z,7.37
2019-02-24T08:19:30.066Z,6.70
2019-02-24T08:21:59.263Z,7.33
2019-02-24T08:24:29.185Z,6.62
2019-02-24T08:26:58.459Z,6.10
2019-02-24T08:29:29.335Z,6.67
2019-02-24T08:31:58.493Z,6.37
2019-02-24T08:34:27.584Z,5.97
2019-02-24T08:36:56.711Z,6.37
2019-02-24T08:39:25.802Z,6.30
2019-02-24T08:41:54.993Z,6.80
2019-02-24T08:44:24.145Z,6.50
2019-02-24T08:46:59.725Z,6.60
2019-02-24T08:49:28.848Z,6.27
2019-02-24T08:51:57.972Z,6.53
2019-02-24T08:54:27.057Z,6.53
2019-02-24T08:56:56.133Z,6.47
2019-02-24T08:59:25.266Z,5.80
2019-02-24T09:01:54.342Z,6.07
2019-02-24T09:04:23.425Z,6.93
2019-02-24T09:06:52.521Z,6.50
2019-02-24T09:09:21.764Z,6.03
2019-02-24T09:11:50.926Z,5.50
2019-02-24T09:14:21.436Z,6.07
2019-02-24T09:16:50.797Z,5.53
2019-02-24T09:19:19.937Z,5.23
2019-02-24T09:21:49.055Z,5.23
2019-02-24T09:24:18.156Z,5.40
2019-02-24T09:26:47.275Z,5.20
2019-02-24T09:29:16.362Z,5.10
2019-02-24T09:31:45.443Z,5.10
2019-02-24T09:34:14.618Z,5.20
2019-02-24T09:36:43.707Z,5.30
2019-02-24T09:39:12.796Z,5.23
2019-02-24T09:41:41.934Z,5.17
2019-02-24T09:44:11.021Z,4.60
2019-02-24T09:46:40.128Z,4.73
2019-02-24T09:49:09.242Z,4.80
2019-02-24T09:51:38.315Z,4.80
2019-02-24T09:54:07.411Z,4.60
2019-02-24T09:56:36.594Z,4.73
2019-02-24T09:59:05.721Z,4.27
2019-02-24T10:01:34.910Z,4.37
2019-02-24T10:04:03.979Z,4.97
2019-02-24T10:06:33.142Z,4.43
2019-02-24T10:09:02.299Z,4.70
2019-02-24T10:11:31.446Z,4.43
2019-02-24T10:14:00.554Z,4.70
2019-02-24T10:16:29.666Z,4.50
2019-02-24T10:18:58.803Z,4.30
2019-02-24T10:21:27.922Z,4.47
2019-02-24T10:23:57.035Z,3.87
2019-02-24T10:26:26.158Z,4.70
2019-02-24T10:28:55.333Z,3.90
2019-02-24T10:31:24.484Z,3.50
2019-02-24T10:33:53.587Z,4.00
2019-02-24T10:36:22.671Z,4.90
2019-02-24T10:38:51.901Z,3.67
2019-02-24T10:41:21.054Z,3.90
2019-02-24T10:43:50.218Z,4.13
2019-02-24T10:46:19.639Z,3.73
2019-02-24T10:48:48.761Z,3.47
2019-02-24T10:51:17.948Z,3.40
2019-02-24T10:53:47.122Z,3.60
2019-02-24T10:56:16.306Z,3.77
2019-02-24T10:58:45.436Z,3.73
2019-02-24T11:01:14.529Z,3.50
2019-02-24T11:03:43.608Z,3.63
2019-02-24T11:06:12.706Z,3.40
2019-02-24T11:08:41.800Z,3.30
2019-02-24T11:11:11.082Z,3.20
2019-02-24T11:13:40.185Z,3.20
2019-02-24T11:16:09.274Z,3.80
2019-02-24T11:18:38.362Z,3.33
2019-02-24T11:21:07.517Z,3.30
2019-02-24T11:23:36.619Z,3.23
2019-02-24T11:26:05.724Z,3.30
2019-02-24T11:28:34.804Z,3.10
2019-02-24T11:31:03.928Z,3.00
2019-02-24T11:33:33.104Z,3.37
2019-02-24T11:36:02.200Z,3.17
2019-02-24T11:38:31.304Z,3.03
2019-02-24T11:41:00.438Z,3.07
2019-02-24T11:43:29.556Z,3.17
2019-02-24T11:45:58.656Z,3.00
2019-02-24T11:48:27.722Z,3.77
2019-02-24T11:50:56.834Z,3.00
2019-02-24T11:53:25.936Z,3.20
2019-02-24T11:55:55.114Z,3.40
2019-02-24T11:58:24.212Z,3.20
2019-02-24T12:00:53.313Z,2.83
2019-02-24T12:03:22.425Z,3.23
2019-02-24T12:05:51.502Z,3.00
2019-02-24T12:08:20.590Z,2.60
2019-02-24T12:10:49.764Z,2.90
2019-02-24T12:13:18.881Z,2.63
2019-02-24T12:15:47.998Z,2.90
2019-02-24T12:18:17.125Z,2.70
2019-02-24T12:20:46.186Z,2.90
2019-02-24T12:23:15.316Z,3.17
2019-02-24T12:25:44.418Z,3.20
2019-02-24T12:28:13.547Z,2.90
2019-02-24T12:30:42.650Z,2.80
2019-02-24T12:33:11.717Z,3.07
2019-02-24T12:35:40.812Z,4.07
2019-02-24T12:38:09.929Z,3.23
2019-02-24T12:40:39.041Z,2.63
2019-02-24T12:43:08.213Z,2.50
2019-02-24T12:45:37.374Z,2.60
2019-02-24T12:48:06.457Z,2.70
2019-02-24T12:50:35.572Z,3.00
2019-02-24T12:53:04.693Z,2.90
2019-02-24T12:55:33.933Z,2.97
2019-02-24T12:58:03.099Z,2.83
2019-02-24T13:00:32.377Z,3.20
2019-02-24T13:03:01.653Z,3.00
2019-02-24T13:05:30.736Z,2.73
2019-02-24T13:07:59.846Z,3.03
2019-02-24T13:10:29.077Z,3.20
2019-02-24T13:12:58.112Z,2.80
2019-02-24T13:15:27.243Z,3.00
2019-02-24T13:17:56.401Z,2.77
2019-02-24T13:20:25.481Z,2.60
2019-02-24T13:22:54.710Z,2.73
2019-02-24T13:25:23.971Z,3.20
2019-02-24T13:27:53.135Z,2.70
2019-02-24T13:30:22.244Z,3.17
2019-02-24T13:32:51.316Z,2.80
2019-02-24T13:35:20.427Z,2.83
2019-02-24T13:37:49.508Z,3.40
2019-02-24T13:40:18.671Z,3.30
2019-02-24T13:42:47.826Z,3.53
2019-02-24T13:45:16.999Z,4.27
2019-02-24T13:47:46.101Z,3.17
2019-02-24T13:50:15.768Z,3.53
2019-02-24T13:52:44.908Z,3.20
2019-02-24T13:55:14.120Z,3.37
2019-02-24T13:57:43.321Z,3.17
2019-02-24T14:00:14.911Z,3.23
2019-02-24T14:02:44.128Z,3.00
2019-02-24T14:05:13.453Z,3.17
2019-02-24T14:07:42.591Z,3.23
2019-02-24T14:10:12.035Z,3.30
2019-02-24T14:12:41.152Z,3.20
2019-02-24T14:15:10.796Z,3.60
2019-02-24T14:17:39.921Z,3.00
2019-02-24T14:20:10.233Z,4.03
2019-02-24T14:22:39.370Z,3.83
2019-02-24T14:25:09.099Z,3.33
2019-02-24T14:27:38.294Z,3.10
2019-02-24T14:30:09.203Z,3.37
2019-02-24T14:32:38.382Z,3.33
2019-02-24T14:35:09.433Z,3.40
2019-02-24T14:37:38.636Z,3.33
2019-02-24T14:40:08.341Z,3.30
2019-02-24T14:42:37.454Z,3.50
2019-02-24T14:45:08.639Z,3.50
2019-02-24T14:47:37.763Z,3.53
2019-02-24T14:50:07.877Z,3.50
2019-02-24T14:52:37.003Z,3.20
2019-02-24T14:55:06.381Z,3.37
2019-02-24T14:57:35.570Z,3.57
2019-02-24T15:00:05.997Z,3.60
2019-02-24T15:02:42.155Z,3.60
2019-02-24T15:05:06.959Z,3.97
2019-02-24T15:07:36.168Z,3.53
2019-02-24T15:10:06.598Z,3.33
2019-02-24T15:12:35.752Z,3.90
2019-02-24T15:15:05.795Z,3.63
2019-02-24T15:17:35.017Z,3.43
2019-02-24T15:20:04.642Z,3.97
2019-02-24T15:22:33.843Z,3.57
2019-02-24T15:25:02.949Z,3.43
2019-02-24T15:27:32.067Z,3.70
2019-02-24T15:30:01.199Z,3.40
2019-02-24T15:32:30.331Z,3.40
2019-02-24T15:34:59.520Z,3.43
2019-02-24T15:37:28.628Z,3.70
2019-02-24T15:39:57.740Z,3.63
2019-02-24T15:42:26.858Z,3.77
2019-02-24T15:44:55.963Z,3.67
2019-02-24T15:47:25.063Z,3.70
2019-02-24T15:49:54.269Z,3.70
2019-02-24T15:52:23.414Z,3.30
2019-02-24T15:54:52.628Z,3.50
2019-02-24T15:57:21.777Z,3.30
2019-02-24T15:59:50.887Z,3.17
2019-02-24T16:02:22.795Z,3.13
2019-02-24T16:04:51.972Z,3.30
2019-02-24T16:07:21.160Z,3.20
2019-02-24T16:09:50.292Z,3.27
2019-02-24T16:12:19.401Z,3.40
2019-02-24T16:14:48.524Z,3.10
2019-02-24T16:17:17.687Z,3.13
2019-02-24T16:19:46.791Z,3.33
2019-02-24T16:22:15.923Z,2.93
2019-02-24T16:24:45.079Z,3.20
2019-02-24T16:27:14.161Z,3.17
2019-02-24T16:29:43.278Z,3.30
2019-02-24T16:32:12.344Z,3.53
2019-02-24T16:34:41.587Z,3.50
2019-02-24T16:37:10.680Z,3.33
2019-02-24T16:39:39.821Z,2.87
2019-02-24T16:42:08.949Z,2.70
2019-02-24T16:44:38.057Z,2.70
2019-02-24T16:47:07.200Z,2.30
2019-02-24T16:49:36.372Z,2.67
2019-02-24T16:52:05.496Z,2.20
2019-02-24T16:54:34.620Z,2.53
2019-02-24T16:57:05.276Z,2.47
2019-02-24T16:59:34.646Z,2.30
2019-02-24T17:02:03.834Z,2.43
2019-02-24T17:04:32.984Z,2.70
2019-02-24T17:07:02.081Z,2.90
2019-02-24T17:09:31.159Z,2.70
2019-02-24T17:12:00.247Z,3.13
2019-02-24T17:14:29.328Z,3.03
2019-02-24T17:17:01.645Z,2.80
2019-02-24T17:19:29.248Z,3.50
2019-02-24T17:21:58.301Z,3.70
2019-02-24T17:24:27.414Z,3.70
2019-02-24T17:26:56.488Z,3.70
2019-02-24T17:29:25.641Z,3.37
2019-02-24T17:31:54.816Z,3.50
2019-02-24T17:34:23.902Z,3.47
2019-02-24T17:36:52.981Z,3.90
2019-02-24T17:39:22.083Z,3.60
2019-02-24T17:41:51.268Z,3.50
2019-02-24T17:44:20.348Z,3.80
2019-02-24T17:46:49.443Z,4.13
2019-02-24T17:49:18.535Z,3.63
2019-02-24T17:51:47.630Z,3.40
2019-02-24T17:54:16.729Z,3.60
2019-02-24T17:56:45.814Z,3.57
2019-02-24T17:59:14.972Z,3.37
2019-02-24T18:01:44.220Z,4.03
2019-02-24T18:04:13.355Z,3.17
2019-02-24T18:06:42.458Z,3.70
2019-02-24T18:09:11.554Z,3.60
2019-02-24T18:11:40.674Z,3.67
2019-02-24T18:14:09.764Z,3.20
2019-02-24T18:16:38.843Z,3.10
2019-02-24T18:19:07.944Z,3.50
2019-02-24T18:21:37.126Z,4.10
2019-02-24T18:24:06.214Z,3.40
2019-02-24T18:26:35.435Z,3.53
2019-02-24T18:29:04.565Z,3.40
2019-02-24T18:31:33.628Z,4.00
2019-02-24T18:34:02.763Z,4.00
2019-02-24T18:36:31.896Z,3.40
2019-02-24T18:39:00.995Z,3.80
2019-02-24T18:41:30.070Z,3.90
2019-02-24T18:43:59.245Z,3.73
2019-02-24T18:46:28.431Z,4.17
2019-02-24T18:48:57.575Z,4.37
2019-02-24T18:51:26.652Z,4.10
2019-02-24T18:53:55.728Z,4.00
2019-02-24T18:56:24.853Z,3.93
2019-02-24T18:58:53.980Z,4.13
2019-02-24T19:01:23.096Z,4.13
2019-02-24T19:03:57.677Z,4.00
2019-02-24T19:06:23.059Z,4.07
2019-02-24T19:08:52.145Z,3.80
2019-02-24T19:11:21.251Z,4.20
2019-02-24T19:13:50.409Z,4.33
2019-02-24T19:16:19.542Z,4.47
2019-02-24T19:18:48.752Z,4.37
2019-02-24T19:21:18.361Z,4.43
2019-02-24T19:23:47.542Z,4.40
2019-02-24T19:26:16.687Z,4.27
2019-02-24T19:28:45.864Z,4.47
2019-02-24T19:31:15.018Z,4.43
2019-02-24T19:33:44.230Z,4.40
2019-02-24T19:36:14.096Z,4.33
2019-02-24T19:38:43.335Z,4.73
2019-02-24T19:41:12.462Z,4.77
2019-02-24T19:43:41.550Z,4.30
2019-02-24T19:46:10.768Z,4.70
2019-02-24T19:48:42.207Z,4.70
2019-02-24T19:51:10.851Z,4.70
2019-02-24T19:53:39.964Z,4.20
2019-02-24T19:56:09.177Z,4.23
2019-02-24T19:58:38.269Z,4.50
2019-02-24T20:01:07.500Z,4.40
2019-02-24T20:03:36.791Z,4.40
2019-02-24T20:06:05.907Z,4.57
2019-02-24T20:08:35.118Z,4.30
2019-02-24T20:11:04.198Z,4.67
2019-02-24T20:13:33.410Z,4.97
2019-02-24T20:16:02.539Z,4.50
2019-02-24T20:18:31.732Z,4.30
2019-02-24T20:21:00.901Z,4.40
2019-02-24T20:23:30.203Z,4.87
2019-02-24T20:25:59.387Z,4.90
2019-02-24T20:28:28.517Z,4.43
2019-02-24T20:30:57.692Z,4.97
2019-02-24T20:33:26.838Z,4.87
2019-02-24T20:35:56.017Z,4.87
2019-02-24T20:38:25.830Z,5.17
2019-02-24T20:40:54.953Z,4.57
2019-02-24T20:43:24.169Z,4.43
2019-02-24T20:45:53.256Z,4.80
2019-02-24T20:48:22.353Z,5.13
2019-02-24T20:50:51.468Z,4.33
2019-02-24T20:53:20.545Z,4.90
2019-02-24T20:55:49.777Z,4.80
2019-02-24T20:58:18.944Z,4.67
2019-02-24T21:00:48.043Z,4.33
2019-02-24T21:03:17.167Z,4.80
2019-02-24T21:05:46.255Z,4.40
2019-02-24T21:08:15.361Z,4.23
2019-02-24T21:10:44.488Z,4.70
2019-02-24T21:13:13.570Z,4.80
2019-02-24T21:15:42.696Z,5.13
2019-02-24T21:18:11.864Z,4.47
2019-02-24T21:20:41.072Z,4.63
2019-02-24T21:23:10.162Z,4.70
2019-02-24T21:25:39.586Z,4.43
2019-02-24T21:28:08.779Z,4.50
2019-02-24T21:30:37.885Z,5.47
2019-02-24T21:33:07.020Z,4.80
2019-02-24T21:35:36.193Z,4.13
2019-02-24T21:38:05.281Z,4.87
2019-02-24T21:40:34.414Z,4.70
2019-02-24T21:43:03.554Z,4.30
2019-02-24T21:45:32.647Z,4.40
2019-02-24T21:48:01.786Z,4.40
2019-02-24T21:50:30.877Z,4.80
2019-02-24T21:52:59.973Z,4.20
2019-02-24T21:55:29.185Z,4.37
2019-02-24T21:57:58.345Z,4.47
2019-02-24T22:00:27.564Z,4.87
2019-02-24T22:02:56.678Z,4.07
2019-02-24T22:05:25.852Z,4.13
2019-02-24T22:07:55.766Z,3.80
2019-02-24T22:10:25.054Z,3.87
2019-02-24T22:12:54.137Z,3.80
2019-02-24T22:15:23.232Z,4.00
2019-02-24T22:17:52.444Z,4.27
2019-02-24T22:20:21.591Z,4.00
2019-02-24T22:22:50.702Z,3.83
2019-02-24T22:25:19.786Z,4.20
2019-02-24T22:27:48.883Z,3.73
2019-02-24T22:30:18.207Z,3.80
2019-02-24T22:32:47.374Z,4.30
2019-02-24T22:35:16.665Z,4.60
2019-02-24T22:37:45.802Z,4.03
2019-02-24T22:40:16.719Z,4.10
2019-02-24T22:42:46.088Z,3.83
2019-02-24T22:45:16.887Z,4.40
2019-02-24T22:47:46.396Z,3.50
2019-02-24T22:50:15.771Z,4.13
2019-02-24T22:52:45.245Z,4.10
2019-02-24T22:55:14.646Z,3.77
2019-02-24T22:57:43.774Z,4.07
2019-02-24T23:00:32.361Z,4.00
2019-02-24T23:03:01.673Z,4.53
2019-02-24T23:05:30.969Z,4.43
2019-02-24T23:08:00.099Z,4.10
2019-02-24T23:10:29.215Z,3.93
2019-02-24T23:12:58.397Z,3.80
2019-02-24T23:15:27.540Z,4.33
2019-02-24T23:17:56.713Z,4.27
2019-02-24T23:20:25.799Z,4.13
2019-02-24T23:22:56.289Z,4.70
2019-02-24T23:25:25.375Z,4.57
2019-02-24T23:27:54.497Z,4.47
2019-02-24T23:30:23.566Z,4.70
2019-02-24T23:32:52.640Z,4.40
2019-02-24T23:35:21.820Z,4.07
2019-02-24T23:37:50.917Z,4.30
2019-02-24T23:40:20.022Z,4.67
2019-02-24T23:42:49.171Z,5.13
2019-02-24T23:45:18.281Z,4.53
2019-02-24T23:47:47.353Z,4.83
2019-02-24T23:50:16.459Z,4.90
2019-02-24T23:52:45.542Z,5.03
2019-02-24T23:55:14.654Z,5.77
2019-02-24T23:57:43.734Z,4.60
